Las Cruces, NM

7:35 AM MST on December 22, 2014 (GMT -0700)
Engler Rd | Change Station
CLOSE
Current Station
Personal Weather Station
Location: Las Cruces, NM
Elevation: 4354 ft
Nearby Weather Stations

Elev 4354 ft 32.39 °N, 106.73 °W | Updated 2 minutes ago

Partly Cloudy
Partly Cloudy
36.9 °F
Feels Like 37 °F
N
1.6
Wind Variable Wind from SW

Today
High -- | Low -- °F
--% Chance of Precip.
Yesterday
High -- | Low -- °F
Precip. -- in
7:04 AM 5:06 PM
New Moon, 0% visible
Pressure 29.95 in
Visibility 10.0 miles
Clouds Clear
Windchill 37 °F
Dew Point 32 °F
Humidity 81%
Rainfall 0.00 in
Snow Depth Not available.
UV 0 out of 12
Pollen 9.00 out of 12
Air Quality Not available.
Flu Activity Not available.
METAR KLRU 221415Z AUTO 00000KT 10SM CLR 04/00 A2995 RMK AO2 T00411005

More Conditions Fewer Conditions

Pressure 29.95 in
Visibility 10.0 miles
Clouds Clear
Windchill 37 °F
Dew Point 32 °F
Humidity 81%
Rainfall 0.00 in
Snow Depth Not available.
UV 0 out of 12
Pollen 9.00 out of 12
Air Quality Not available.
Flu Activity Not available.
METAR KLRU 221415Z AUTO 00000KT 10SM CLR 04/00 A2995 RMK AO2 T00411005

More Conditions Fewer Conditions

10-Day Weather Forecast

Almanac

Astronomy

Dec. 22, 2014 Rise Set
Actual Time
Civil Twilight
Nautical Twilight
Astronomical Twilight
Moon
Length of Visible Light
Length of Day
Tomorrow will be .
, % of the Moon is Illuminated

Today's Extremes

State Highs State Lows

Community

WunderPhotos

Upload Photos

1,779,608 photos uploaded!

WunderBlogs® & News

Nearby

Air Quality

  Air Quality AQ Index Pollutant
Not available.

Snow Depth

Station Depth Elevation

Earthquake Activity

City Distance Mag. Time & Date
Minimum magnitude displayed is 2.5.

Coastal Water Temperatures

Place Temperature

Nearby Weather Stations